Hoken Maru — JD2909 — position and weather

sailwx.info

Track history (hours):
 
Tides and Currents Weather Stations Pressure Air Temp Water Temp Dewpoint Dewpoint Depression Visibility Wind Speed Wind Dir Waves Ship Positions

Hoken Maru

Last reported at 2017-Nov-15 08:10 UTC. Time now 2017-Nov-24 04:13 UTC.
Position N 34°34' E 134°50'.
Warning: this ship's position is 8 days out of date.

Length 72 m; draft 3.3 m.

Type: Ship (hazmat cat D). MMSI: 431000943.

Date/timePositionNaut miles runAvg speedWind from/ knotsBaromVisibWave heightAir tempDewpointWater temp
2017-Nov-15 08:10N 34°34' E 134°50'313.6
2017-Nov-15 07:55N 34°36' E 134°54'712.7
2017-Nov-15 07:24N 34°37' E 135°02'411.1
2017-Nov-15 07:00N 34°37' E 135°07'2 4.2
2017-Nov-15 06:28N 34°39' E 135°08'0 0.0
2017-Nov-15 05:58N 34°39' E 135°08'0 0.0
2017-Nov-15 03:10N 34°39' E 135°08'0 0.0
2017-Nov-15 02:40N 34°39' E 135°08'0 0.0
2017-Nov-15 02:10N 34°39' E 135°08'0 1.4
2017-Nov-15 02:00N 34°38' E 135°08'1 1.3
2017-Nov-15 01:26N 34°38' E 135°09'0 0.1
2017-Nov-15 00:56N 34°38' E 135°09'0 0.0
2017-Nov-14 23:14N 34°38' E 135°09'0 0.0
2017-Nov-14 22:56N 34°38' E 135°09'0 0.0
2017-Nov-14 22:14N 34°38' E 135°09'0 0.0
2017-Nov-14 21:56N 34°38' E 135°09'0 0.0
2017-Nov-14 21:20N 34°38' E 135°09'0 0.0
2017-Nov-14 20:56N 34°38' E 135°09'0 0.0
2017-Nov-14 20:26N 34°38' E 135°09'0 0.0
2017-Nov-14 19:56N 34°38' E 135°09'0 0.0
2017-Nov-14 19:26N 34°38' E 135°09'0 0.0
2017-Nov-14 18:56N 34°38' E 135°09'0 0.1
2017-Nov-14 18:26N 34°38' E 135°09'0 0.1
2017-Nov-14 17:56N 34°38' E 135°09'0 0.0
2017-Nov-14 17:26N 34°38' E 135°09'0 0.0
2017-Nov-14 16:56N 34°38' E 135°09'0 0.0
2017-Nov-14 16:26N 34°38' E 135°09'0 0.0
2017-Nov-14 15:56N 34°38' E 135°09'0 0.0
2017-Nov-14 15:20N 34°38' E 135°09'0 0.9
2017-Nov-14 15:00N 34°37' E 135°08'610.0
2017-Nov-14 14:26N 34°37' E 135°01'  
2017-Nov-12 06:42N 34°36' E 134°55'313.9
2017-Nov-12 06:28N 34°38' E 134°59'613.6
2017-Nov-12 06:00N 34°36' E 135°06'611.6
2017-Nov-12 05:30N 34°35' E 135°13'611.6
2017-Nov-12 04:59N 34°34' E 135°20'4 9.1
2017-Nov-12 04:30N 34°33' E 135°26'0 0.3
2017-Nov-12 03:55N 34°33' E 135°26'0 0.0
2017-Nov-12 03:25N 34°33' E 135°26'0 0.0
2017-Nov-12 02:55N 34°33' E 135°26'0 0.0
2017-Nov-12 02:25N 34°33' E 135°26'0 0.0
2017-Nov-12 01:55N 34°33' E 135°26'0 0.0
2017-Nov-12 01:25N 34°33' E 135°26'0 0.0
2017-Nov-12 00:49N 34°33' E 135°26'0 0.0
2017-Nov-12 00:19N 34°33' E 135°26'0 0.0
2017-Nov-11 23:58N 34°33' E 135°26'0 0.0
2017-Nov-11 23:30N 34°33' E 135°26'0 0.4
2017-Nov-11 22:59N 34°33' E 135°25'3 7.1
2017-Nov-11 22:30N 34°32' E 135°21'2 2.8
2017-Nov-11 21:55N 34°32' E 135°20'0 0.1
2017-Nov-11 21:13N 34°32' E 135°20'0 0.0
2017-Nov-11 19:49N 34°32' E 135°20'0 0.0
2017-Nov-11 19:19N 34°32' E 135°20'0 0.1
2017-Nov-11 18:43N 34°32' E 135°20'0 0.0
2017-Nov-11 18:19N 34°32' E 135°20'0 0.1
2017-Nov-11 17:55N 34°32' E 135°20'0 0.0
2017-Nov-11 16:49N 34°32' E 135°20'0 0.1
2017-Nov-11 16:25N 34°32' E 135°20'0 0.0
2017-Nov-11 15:55N 34°32' E 135°20'0 0.0
2017-Nov-11 15:25N 34°32' E 135°20'0 0.0
2017-Nov-11 14:55N 34°32' E 135°20'0 0.0
2017-Nov-11 14:19N 34°32' E 135°20'0 0.0
2017-Nov-11 13:55N 34°32' E 135°20'0 0.0
2017-Nov-11 13:13N 34°32' E 135°20'0 0.0
2017-Nov-11 12:55N 34°32' E 135°20'0 0.1
2017-Nov-11 12:25N 34°32' E 135°20'0 0.1
2017-Nov-11 11:55N 34°32' E 135°20'0 0.0
2017-Nov-11 11:19N 34°32' E 135°20'0 0.0
2017-Nov-11 10:49N 34°32' E 135°20'0 0.0
2017-Nov-11 10:25N 34°32' E 135°20'0 0.0
2017-Nov-11 09:49N 34°32' E 135°20'0 0.0
2017-Nov-11 09:25N 34°32' E 135°20'0 0.0
2017-Nov-11 08:55N 34°32' E 135°20'0 0.1
2017-Nov-11 08:22N 34°32' E 135°20'3 8.0
2017-Nov-11 07:59N 34°33' E 135°17'612.5
2017-Nov-11 07:31N 34°37' E 135°11'3 4.5
2017-Nov-11 06:56N 34°39' E 135°08'0 0.0
2017-Nov-11 06:20N 34°39' E 135°08'0 0.0
2017-Nov-11 05:56N 34°39' E 135°08'0 0.0
2017-Nov-11 05:26N 34°39' E 135°08'0 0.0
2017-Nov-11 04:56N 34°39' E 135°08'0 0.0
2017-Nov-11 04:26N 34°39' E 135°08'1 0.9
2017-Nov-11 03:42N 34°38' E 135°08'0 0.0
2017-Nov-11 03:24N 34°38' E 135°08'0 0.1
2017-Nov-11 02:54N 34°38' E 135°08'0 0.1
2017-Nov-11 02:24N 34°38' E 135°08'0 0.1
2017-Nov-11 01:54N 34°38' E 135°08'0 0.0
2017-Nov-11 01:30N 34°38' E 135°08'0 0.1
2017-Nov-11 00:54N 34°38' E 135°08'0 0.0
2017-Nov-11 00:30N 34°38' E 135°08'0 0.0
2017-Nov-11 00:00N 34°38' E 135°08'0 0.0
2017-Nov-10 23:24N 34°38' E 135°08'0 0.0
2017-Nov-10 23:00N 34°38' E 135°08'0 0.0
2017-Nov-10 22:30N 34°38' E 135°08'2 4.3
2017-Nov-10 21:59N 34°36' E 135°07'511.0
2017-Nov-10 21:30N 34°31' E 135°05'510.9
2017-Nov-10 21:00N 34°26' E 135°03'1510.2
2017-Nov-10 19:33N 34°11' E 134°60'110.3
2017-Nov-10 19:25N 34°10' E 135°00'  
2017-Nov-07 04:40N 35°13' E 139°46'211.9
2017-Nov-07 04:30N 35°15' E 139°46'611.6
2017-Nov-07 04:01N 35°20' E 139°42'510.9
2017-Nov-07 03:31N 35°25' E 139°44'712.2
2017-Nov-07 02:55N 35°29' E 139°51'38 0.9
2017-Nov-05 11:09N 34°59' E 139°24'1 9.3
2017-Nov-05 11:00N 34°59' E 139°26'5 9.5
2017-Nov-05 10:30N 35°02' E 139°31'510.3
2017-Nov-05 09:59N 35°04' E 139°36'511.3
2017-Nov-05 09:30N 35°07' E 139°42'611.3
2017-Nov-05 09:00N 35°12' E 139°46'511.0
2017-Nov-05 08:31N 35°17' E 139°45'  
Track history (hours):
 
Tides and Currents Weather Stations Pressure Air Temp Water Temp Dewpoint Dewpoint Depression Visibility Wind Speed Wind Dir Waves Ship Positions

Hoken Maru

Last reported at 2017-Nov-15 08:10 UTC. Time now 2017-Nov-24 04:13 UTC.
Position N 34°34' E 134°50'.
Warning: this ship's position is 8 days out of date.

Length 72 m; draft 3.3 m.

Type: Ship (hazmat cat D). MMSI: 431000943.

Date/timePositionNaut miles runAvg speedWind from/ knotsBaromVisibWave heightAir tempDewpointWater temp
2017-Nov-15 08:10N 34°34' E 134°50'313.6
2017-Nov-15 07:55N 34°36' E 134°54'712.7
2017-Nov-15 07:24N 34°37' E 135°02'411.1
2017-Nov-15 07:00N 34°37' E 135°07'2 4.2
2017-Nov-15 06:28N 34°39' E 135°08'0 0.0
2017-Nov-15 05:58N 34°39' E 135°08'0 0.0
2017-Nov-15 03:10N 34°39' E 135°08'0 0.0
2017-Nov-15 02:40N 34°39' E 135°08'0 0.0
2017-Nov-15 02:10N 34°39' E 135°08'0 1.4
2017-Nov-15 02:00N 34°38' E 135°08'1 1.3
2017-Nov-15 01:26N 34°38' E 135°09'0 0.1
2017-Nov-15 00:56N 34°38' E 135°09'0 0.0
2017-Nov-14 23:14N 34°38' E 135°09'0 0.0
2017-Nov-14 22:56N 34°38' E 135°09'0 0.0
2017-Nov-14 22:14N 34°38' E 135°09'0 0.0
2017-Nov-14 21:56N 34°38' E 135°09'0 0.0
2017-Nov-14 21:20N 34°38' E 135°09'0 0.0
2017-Nov-14 20:56N 34°38' E 135°09'0 0.0
2017-Nov-14 20:26N 34°38' E 135°09'0 0.0
2017-Nov-14 19:56N 34°38' E 135°09'0 0.0
2017-Nov-14 19:26N 34°38' E 135°09'0 0.0
2017-Nov-14 18:56N 34°38' E 135°09'0 0.1
2017-Nov-14 18:26N 34°38' E 135°09'0 0.1
2017-Nov-14 17:56N 34°38' E 135°09'0 0.0
2017-Nov-14 17:26N 34°38' E 135°09'0 0.0
2017-Nov-14 16:56N 34°38' E 135°09'0 0.0
2017-Nov-14 16:26N 34°38' E 135°09'0 0.0
2017-Nov-14 15:56N 34°38' E 135°09'0 0.0
2017-Nov-14 15:20N 34°38' E 135°09'0 0.9
2017-Nov-14 15:00N 34°37' E 135°08'610.0
2017-Nov-14 14:26N 34°37' E 135°01'  
2017-Nov-12 06:42N 34°36' E 134°55'313.9
2017-Nov-12 06:28N 34°38' E 134°59'613.6
2017-Nov-12 06:00N 34°36' E 135°06'611.6
2017-Nov-12 05:30N 34°35' E 135°13'611.6
2017-Nov-12 04:59N 34°34' E 135°20'4 9.1
2017-Nov-12 04:30N 34°33' E 135°26'0 0.3
2017-Nov-12 03:55N 34°33' E 135°26'0 0.0
2017-Nov-12 03:25N 34°33' E 135°26'0 0.0
2017-Nov-12 02:55N 34°33' E 135°26'0 0.0
2017-Nov-12 02:25N 34°33' E 135°26'0 0.0
2017-Nov-12 01:55N 34°33' E 135°26'0 0.0
2017-Nov-12 01:25N 34°33' E 135°26'0 0.0
2017-Nov-12 00:49N 34°33' E 135°26'0 0.0
2017-Nov-12 00:19N 34°33' E 135°26'0 0.0
2017-Nov-11 23:58N 34°33' E 135°26'0 0.0
2017-Nov-11 23:30N 34°33' E 135°26'0 0.4
2017-Nov-11 22:59N 34°33' E 135°25'3 7.1
2017-Nov-11 22:30N 34°32' E 135°21'2 2.8
2017-Nov-11 21:55N 34°32' E 135°20'0 0.1
2017-Nov-11 21:13N 34°32' E 135°20'0 0.0
2017-Nov-11 19:49N 34°32' E 135°20'0 0.0
2017-Nov-11 19:19N 34°32' E 135°20'0 0.1
2017-Nov-11 18:43N 34°32' E 135°20'0 0.0
2017-Nov-11 18:19N 34°32' E 135°20'0 0.1
2017-Nov-11 17:55N 34°32' E 135°20'0 0.0
2017-Nov-11 16:49N 34°32' E 135°20'0 0.1
2017-Nov-11 16:25N 34°32' E 135°20'0 0.0
2017-Nov-11 15:55N 34°32' E 135°20'0 0.0
2017-Nov-11 15:25N 34°32' E 135°20'0 0.0
2017-Nov-11 14:55N 34°32' E 135°20'0 0.0
2017-Nov-11 14:19N 34°32' E 135°20'0 0.0
2017-Nov-11 13:55N 34°32' E 135°20'0 0.0
2017-Nov-11 13:13N 34°32' E 135°20'0 0.0
2017-Nov-11 12:55N 34°32' E 135°20'0 0.1
2017-Nov-11 12:25N 34°32' E 135°20'0 0.1
2017-Nov-11 11:55N 34°32' E 135°20'0 0.0
2017-Nov-11 11:19N 34°32' E 135°20'0 0.0
2017-Nov-11 10:49N 34°32' E 135°20'0 0.0
2017-Nov-11 10:25N 34°32' E 135°20'0 0.0
2017-Nov-11 09:49N 34°32' E 135°20'0 0.0
2017-Nov-11 09:25N 34°32' E 135°20'0 0.0
2017-Nov-11 08:55N 34°32' E 135°20'0 0.1
2017-Nov-11 08:22N 34°32' E 135°20'3 8.0
2017-Nov-11 07:59N 34°33' E 135°17'612.5
2017-Nov-11 07:31N 34°37' E 135°11'3 4.5
2017-Nov-11 06:56N 34°39' E 135°08'0 0.0
2017-Nov-11 06:20N 34°39' E 135°08'0 0.0
2017-Nov-11 05:56N 34°39' E 135°08'0 0.0
2017-Nov-11 05:26N 34°39' E 135°08'0 0.0
2017-Nov-11 04:56N 34°39' E 135°08'0 0.0
2017-Nov-11 04:26N 34°39' E 135°08'1 0.9
2017-Nov-11 03:42N 34°38' E 135°08'0 0.0
2017-Nov-11 03:24N 34°38' E 135°08'0 0.1
2017-Nov-11 02:54N 34°38' E 135°08'0 0.1
2017-Nov-11 02:24N 34°38' E 135°08'0 0.1
2017-Nov-11 01:54N 34°38' E 135°08'0 0.0
2017-Nov-11 01:30N 34°38' E 135°08'0 0.1
2017-Nov-11 00:54N 34°38' E 135°08'0 0.0
2017-Nov-11 00:30N 34°38' E 135°08'0 0.0
2017-Nov-11 00:00N 34°38' E 135°08'0 0.0
2017-Nov-10 23:24N 34°38' E 135°08'0 0.0
2017-Nov-10 23:00N 34°38' E 135°08'0 0.0
2017-Nov-10 22:30N 34°38' E 135°08'2 4.3
2017-Nov-10 21:59N 34°36' E 135°07'511.0
2017-Nov-10 21:30N 34°31' E 135°05'510.9
2017-Nov-10 21:00N 34°26' E 135°03'1510.2
2017-Nov-10 19:33N 34°11' E 134°60'110.3
2017-Nov-10 19:25N 34°10' E 135°00'  
2017-Nov-07 04:40N 35°13' E 139°46'211.9
2017-Nov-07 04:30N 35°15' E 139°46'611.6
2017-Nov-07 04:01N 35°20' E 139°42'510.9
2017-Nov-07 03:31N 35°25' E 139°44'712.2
2017-Nov-07 02:55N 35°29' E 139°51'38 0.9
2017-Nov-05 11:09N 34°59' E 139°24'1 9.3
2017-Nov-05 11:00N 34°59' E 139°26'5 9.5
2017-Nov-05 10:30N 35°02' E 139°31'510.3
2017-Nov-05 09:59N 35°04' E 139°36'511.3
2017-Nov-05 09:30N 35°07' E 139°42'611.3
2017-Nov-05 09:00N 35°12' E 139°46'511.0
2017-Nov-05 08:31N 35°17' E 139°45'  

Dump ship's entire track history